Time;durP1;ratioP1;P1;durP2;ratioP2;P2;SDS_P1;SDS_P2;PMS_P1;PMS_P2;Temp;Humidity;BMP_temperature;BMP_pressure;BME280_temperature;BME280_humidity;BME280_pressure;Samples;Min_cycle;Max_cycle;Signal;HPM_P1;HPM_P2
2023/07/14 00:01:00;;;;;;;11.33;6.10;;;;;;;;;;5022945;28;20036;-81
2023/07/14 00:03:25;;;;;;;9.37;5.83;;;;;;;;;;5019132;28;20051;-81
2023/07/14 00:05:50;;;;;;;11.53;5.97;;;;;;;;;;5023008;28;20037;-80
2023/07/14 00:08:16;;;;;;;13.90;6.60;;;;;;;;;;5020978;28;20048;-81
2023/07/14 00:10:41;;;;;;;11.13;5.80;;;;;;;;;;5007625;28;20370;-81
2023/07/14 00:13:10;;;;;;;9.63;5.90;;;;;;;;;;5021944;28;20155;-81
2023/07/14 00:15:36;;;;;;;11.02;6.85;;;;;;;;;;5020627;28;20045;-81
2023/07/14 00:18:04;;;;;;;13.27;6.78;;;;;;;;;;5027474;28;20040;-80
2023/07/14 00:20:30;;;;;;;11.27;6.00;;;;;;;;;;4997742;28;20029;-81
2023/07/14 00:22:56;;;;;;;11.38;6.65;;;;;;;;;;5001973;28;20061;-81
2023/07/14 00:25:24;;;;;;;9.48;5.78;;;;;;;;;;5009047;28;20484;-80
2023/07/14 00:27:50;;;;;;;11.52;5.93;;;;;;;;;;5027823;28;20033;-81
2023/07/14 00:30:16;;;;;;;10.68;6.43;;;;;;;;;;5008444;28;20128;-80
2023/07/14 00:32:42;;;;;;;8.95;6.07;;;;;;;;;;5017946;28;20041;-80
2023/07/14 00:35:16;;;;;;;10.20;6.07;;;;;;;;;;5028714;28;20040;-81
2023/07/14 00:37:41;;;;;;;14.00;6.53;;;;;;;;;;5012305;28;20067;-80
2023/07/14 00:40:08;;;;;;;9.67;6.40;;;;;;;;;;5042870;28;20037;-80
2023/07/14 00:42:33;;;;;;;8.30;5.95;;;;;;;;;;5009343;28;20044;-80
2023/07/14 00:44:58;;;;;;;13.17;6.80;;;;;;;;;;5008491;28;20103;-80
2023/07/14 00:47:26;;;;;;;11.57;6.68;;;;;;;;;;5021830;28;20045;-80
2023/07/14 00:49:51;;;;;;;11.23;6.93;;;;;;;;;;5027266;28;20037;-80
2023/07/14 00:52:19;;;;;;;10.85;6.43;;;;;;;;;;5036866;28;20511;-80
2023/07/14 00:54:46;;;;;;;9.98;6.40;;;;;;;;;;5027168;28;20462;-80
2023/07/14 00:57:13;;;;;;;12.05;6.78;;;;;;;;;;5017579;28;20064;-81
2023/07/14 00:59:38;;;;;;;13.38;6.60;;;;;;;;;;4997844;28;20041;-80
2023/07/14 01:02:10;;;;;;;9.87;6.40;;;;;;;;;;5021138;28;20048;-80
2023/07/14 01:04:35;;;;;;;9.18;6.97;;;;;;;;;;5022135;28;20076;-80
2023/07/14 01:07:01;;;;;;;9.48;6.82;;;;;;;;;;5004145;28;20041;-80
2023/07/14 01:09:26;;;;;;;13.03;7.60;;;;;;;;;;5030945;28;20044;-80
2023/07/14 01:11:52;;;;;;;9.63;7.00;;;;;;;;;;5036432;28;20083;-77
2023/07/14 01:14:18;;;;;;;12.82;6.78;;;;;;;;;;5027873;28;20947;-79
2023/07/14 01:16:43;;;;;;;9.93;6.18;;;;;;;;;;5006622;28;20415;-82
2023/07/14 01:19:09;;;;;;;13.90;7.43;;;;;;;;;;4997726;28;20038;-79
2023/07/14 01:21:35;;;;;;;11.52;7.03;;;;;;;;;;5013534;28;20191;-79
2023/07/14 01:24:03;;;;;;;12.47;7.13;;;;;;;;;;5010099;28;20080;-82
2023/07/14 01:27:04;;;;;;;11.45;7.50;;;;;;;;;;4994687;28;20029;-82
2023/07/14 01:29:30;;;;;;;12.98;7.15;;;;;;;;;;4968179;28;20038;-82
2023/07/14 01:31:55;;;;;;;13.30;7.88;;;;;;;;;;5013296;28;20029;-82
2023/07/14 01:34:21;;;;;;;10.82;7.95;;;;;;;;;;5008988;28;20041;-83
2023/07/14 01:36:48;;;;;;;10.65;7.57;;;;;;;;;;5011430;28;20037;-82
2023/07/14 01:39:13;;;;;;;11.95;8.10;;;;;;;;;;5028247;28;20128;-82
2023/07/14 01:41:39;;;;;;;11.82;7.35;;;;;;;;;;5043661;28;20116;-83
2023/07/14 01:44:04;;;;;;;12.83;7.73;;;;;;;;;;5028403;28;20071;-82
2023/07/14 01:46:33;;;;;;;11.52;7.70;;;;;;;;;;5014430;28;20112;-82
2023/07/14 01:48:58;;;;;;;12.23;7.53;;;;;;;;;;5030475;28;20052;-82
2023/07/14 01:51:27;;;;;;;12.00;7.13;;;;;;;;;;5031082;28;20182;-82
2023/07/14 01:54:03;;;;;;;11.60;7.38;;;;;;;;;;5031260;28;20045;-82
2023/07/14 01:56:28;;;;;;;12.52;7.22;;;;;;;;;;5014734;28;20048;-82
2023/07/14 01:59:08;;;;;;;12.00;7.37;;;;;;;;;;5011940;28;20077;-82
2023/07/14 02:01:33;;;;;;;13.25;7.35;;;;;;;;;;4999938;28;20037;-82
2023/07/14 02:03:58;;;;;;;12.30;7.80;;;;;;;;;;5011215;28;20045;-80
2023/07/14 02:06:24;;;;;;;13.97;7.80;;;;;;;;;;4995167;28;20271;-79
2023/07/14 02:08:50;;;;;;;11.55;7.88;;;;;;;;;;5029474;28;20090;-79
2023/07/14 02:11:18;;;;;;;9.27;7.07;;;;;;;;;;5035169;28;20037;-81
2023/07/14 02:13:45;;;;;;;10.93;7.32;;;;;;;;;;5024624;28;20040;-79
2023/07/14 02:16:14;;;;;;;12.50;8.23;;;;;;;;;;5049055;28;20043;-80
2023/07/14 02:18:39;;;;;;;12.80;7.82;;;;;;;;;;5020274;28;20052;-79
2023/07/14 02:21:04;;;;;;;11.17;7.50;;;;;;;;;;5030658;28;20511;-79
2023/07/14 02:23:30;;;;;;;17.80;8.10;;;;;;;;;;5029865;28;20345;-80
2023/07/14 02:26:00;;;;;;;10.87;7.60;;;;;;;;;;4995623;28;20041;-80
2023/07/14 02:28:26;;;;;;;15.63;7.97;;;;;;;;;;5026244;28;20290;-81
2023/07/14 02:30:52;;;;;;;12.80;8.25;;;;;;;;;;5030824;28;20336;-80
2023/07/14 02:33:25;;;;;;;15.18;7.75;;;;;;;;;;5012220;28;20083;-80
2023/07/14 02:35:53;;;;;;;14.02;7.97;;;;;;;;;;5032345;28;20073;-80
2023/07/14 02:38:18;;;;;;;12.70;7.65;;;;;;;;;;5021599;28;20107;-80
2023/07/14 02:40:45;;;;;;;10.93;7.77;;;;;;;;;;4996685;28;20458;-80
2023/07/14 02:43:11;;;;;;;12.07;7.78;;;;;;;;;;5028014;28;20369;-81
2023/07/14 02:45:39;;;;;;;12.77;8.20;;;;;;;;;;5027683;28;20513;-80
2023/07/14 02:48:04;;;;;;;11.70;7.72;;;;;;;;;;5009098;28;20045;-80
2023/07/14 02:50:29;;;;;;;10.97;7.90;;;;;;;;;;5014466;28;20098;-80
2023/07/14 02:52:55;;;;;;;12.07;7.60;;;;;;;;;;5048375;28;20095;-80
2023/07/14 02:55:20;;;;;;;14.10;8.17;;;;;;;;;;5010279;28;20047;-81
2023/07/14 02:57:45;;;;;;;13.30;8.07;;;;;;;;;;5015428;28;20049;-82
2023/07/14 03:00:11;;;;;;;13.23;7.43;;;;;;;;;;5030604;28;20033;-82
2023/07/14 03:02:38;;;;;;;14.07;8.13;;;;;;;;;;5015924;28;20299;-81
2023/07/14 03:05:04;;;;;;;12.55;8.30;;;;;;;;;;5027130;28;20523;-80
2023/07/14 03:07:31;;;;;;;11.73;7.80;;;;;;;;;;5048182;28;20036;-80
2023/07/14 03:09:56;;;;;;;12.15;7.43;;;;;;;;;;5049454;28;20476;-81
2023/07/14 03:12:21;;;;;;;12.03;7.60;;;;;;;;;;5041279;28;20040;-80
2023/07/14 03:14:46;;;;;;;11.52;7.22;;;;;;;;;;5038958;28;20832;-80
2023/07/14 03:17:12;;;;;;;12.15;8.00;;;;;;;;;;5043395;28;20060;-80
2023/07/14 03:19:37;;;;;;;13.03;7.53;;;;;;;;;;5046712;28;20482;-81
2023/07/14 03:22:02;;;;;;;12.73;7.50;;;;;;;;;;5021940;28;20303;-80
2023/07/14 03:24:27;;;;;;;11.95;7.72;;;;;;;;;;5016835;28;20283;-82
2023/07/14 03:26:53;;;;;;;14.23;7.73;;;;;;;;;;5010442;28;20037;-81
2023/07/14 03:29:18;;;;;;;12.67;7.97;;;;;;;;;;5025393;28;20662;-81
2023/07/14 03:31:43;;;;;;;14.23;8.33;;;;;;;;;;5054445;28;20036;-81
2023/07/14 03:34:10;;;;;;;11.97;8.13;;;;;;;;;;5033963;28;20351;-82
2023/07/14 03:36:37;;;;;;;13.30;8.00;;;;;;;;;;5051534;28;20037;-81
2023/07/14 03:39:38;;;;;;;12.20;7.78;;;;;;;;;;5027418;28;20175;-81
2023/07/14 03:42:04;;;;;;;12.65;7.50;;;;;;;;;;4976280;28;20129;-80
2023/07/14 03:44:29;;;;;;;14.05;7.43;;;;;;;;;;4999317;28;20131;-80
2023/07/14 03:46:54;;;;;;;11.47;6.60;;;;;;;;;;5047883;28;20101;-81
2023/07/14 03:49:19;;;;;;;8.97;6.77;;;;;;;;;;5032118;28;20279;-80
2023/07/14 03:51:45;;;;;;;10.93;6.93;;;;;;;;;;5053438;28;20371;-81
2023/07/14 03:54:10;;;;;;;13.00;6.73;;;;;;;;;;5034774;28;20043;-81
2023/07/14 03:56:35;;;;;;;11.53;6.30;;;;;;;;;;5016571;28;20361;-81
2023/07/14 03:59:01;;;;;;;12.50;7.63;;;;;;;;;;5018054;28;21126;-82
2023/07/14 04:01:26;;;;;;;14.10;8.23;;;;;;;;;;5037155;28;20514;-80
2023/07/14 04:03:51;;;;;;;14.25;8.45;;;;;;;;;;5036266;28;20040;-79
2023/07/14 04:06:17;;;;;;;17.00;8.23;;;;;;;;;;5026687;28;20115;-80
2023/07/14 04:08:42;;;;;;;11.40;8.30;;;;;;;;;;5021302;28;20041;-80
2023/07/14 04:11:08;;;;;;;13.40;8.10;;;;;;;;;;5053293;28;20330;-79
2023/07/14 04:13:33;;;;;;;16.10;8.38;;;;;;;;;;5032502;28;20573;-80
2023/07/14 04:15:58;;;;;;;12.60;7.70;;;;;;;;;;5048131;28;20131;-80
2023/07/14 04:18:23;;;;;;;15.93;8.63;;;;;;;;;;5028319;28;20060;-80
2023/07/14 04:20:49;;;;;;;11.67;8.27;;;;;;;;;;5031528;28;20301;-80
2023/07/14 04:23:14;;;;;;;22.00;10.10;;;;;;;;;;5052845;28;20800;-79
2023/07/14 04:25:40;;;;;;;20.58;10.10;;;;;;;;;;5028127;28;20067;-80
2023/07/14 04:28:05;;;;;;;19.10;9.43;;;;;;;;;;5028415;28;20087;-81
2023/07/14 04:30:30;;;;;;;15.83;8.57;;;;;;;;;;5028976;28;20825;-80
2023/07/14 04:32:57;;;;;;;13.70;8.15;;;;;;;;;;5028612;28;20541;-80
2023/07/14 04:35:23;;;;;;;11.55;7.93;;;;;;;;;;5028661;28;20051;-79
2023/07/14 04:37:48;;;;;;;11.50;7.97;;;;;;;;;;5055640;28;20029;-81
2023/07/14 04:40:13;;;;;;;15.65;7.90;;;;;;;;;;5029156;28;20037;-81
2023/07/14 04:42:39;;;;;;;13.18;8.40;;;;;;;;;;5025013;28;20029;-82
2023/07/14 04:45:04;;;;;;;14.40;7.93;;;;;;;;;;5041082;28;20044;-74
2023/07/14 04:47:29;;;;;;;21.88;14.38;;;;;;;;;;5047598;28;20039;-79
2023/07/14 04:49:54;;;;;;;17.57;10.33;;;;;;;;;;5049887;28;20844;-79
2023/07/14 04:52:20;;;;;;;17.60;11.67;;;;;;;;;;5048157;28;20040;-79
2023/07/14 04:54:45;;;;;;;14.47;9.37;;;;;;;;;;5050080;28;20041;-78
2023/07/14 04:57:10;;;;;;;14.93;8.37;;;;;;;;;;5027741;28;20753;-78
2023/07/14 04:59:36;;;;;;;15.68;8.27;;;;;;;;;;5031185;28;20479;-77
2023/07/14 05:02:04;;;;;;;15.30;7.95;;;;;;;;;;5052564;28;20499;-77
2023/07/14 05:04:30;;;;;;;12.73;7.60;;;;;;;;;;5031619;28;20045;-77
2023/07/14 05:06:55;;;;;;;14.20;8.17;;;;;;;;;;5029663;28;20036;-78
2023/07/14 05:09:20;;;;;;;14.13;8.13;;;;;;;;;;5053469;28;20386;-78
2023/07/14 05:11:46;;;;;;;13.20;8.20;;;;;;;;;;5033373;28;20117;-77
2023/07/14 05:14:11;;;;;;;13.87;7.53;;;;;;;;;;5046126;28;20303;-77
2023/07/14 05:16:36;;;;;;;12.33;7.17;;;;;;;;;;5017557;28;20374;-78
2023/07/14 05:19:01;;;;;;;14.97;7.53;;;;;;;;;;5033477;28;20945;-78
2023/07/14 05:21:27;;;;;;;13.82;7.82;;;;;;;;;;5046128;28;20488;-77
2023/07/14 05:23:52;;;;;;;13.57;7.80;;;;;;;;;;5005086;28;20053;-78
2023/07/14 05:26:17;;;;;;;14.60;7.97;;;;;;;;;;5021117;28;20053;-81
2023/07/14 05:28:42;;;;;;;12.80;7.73;;;;;;;;;;5022956;28;20033;-81
2023/07/14 05:31:09;;;;;;;13.17;7.13;;;;;;;;;;4998606;28;20522;-80
2023/07/14 05:33:34;;;;;;;13.13;6.93;;;;;;;;;;5021423;28;20044;-81
2023/07/14 05:35:59;;;;;;;11.33;7.27;;;;;;;;;;5006151;28;20029;-83
2023/07/14 05:38:26;;;;;;;11.65;6.95;;;;;;;;;;5019585;28;20037;-76
2023/07/14 05:40:53;;;;;;;11.57;7.13;;;;;;;;;;5016898;28;20026;-73
2023/07/14 05:43:18;;;;;;;11.70;7.43;;;;;;;;;;5037979;28;20099;-79
2023/07/14 05:45:47;;;;;;;12.88;7.78;;;;;;;;;;5037113;28;20045;-78
2023/07/14 05:48:14;;;;;;;13.40;7.60;;;;;;;;;;5017574;28;20072;-75
2023/07/14 05:50:39;;;;;;;11.90;7.55;;;;;;;;;;5020625;28;20044;-78
2023/07/14 05:53:05;;;;;;;12.70;7.70;;;;;;;;;;4997500;28;20178;-72
2023/07/14 05:55:30;;;;;;;12.02;6.97;;;;;;;;;;5022494;28;20820;-74
2023/07/14 05:57:56;;;;;;;12.27;7.13;;;;;;;;;;5017857;28;20041;-78
2023/07/14 06:00:21;;;;;;;12.43;7.50;;;;;;;;;;5002784;28;20689;-78
2023/07/14 06:02:46;;;;;;;14.30;7.27;;;;;;;;;;5037446;28;20349;-74
2023/07/14 06:05:12;;;;;;;12.98;7.45;;;;;;;;;;4998010;28;20791;-74
2023/07/14 06:07:37;;;;;;;12.10;7.57;;;;;;;;;;5003071;28;20044;-76
2023/07/14 06:10:03;;;;;;;13.18;7.32;;;;;;;;;;5037208;28;20035;-75
2023/07/14 06:12:28;;;;;;;11.18;7.18;;;;;;;;;;5019164;28;20032;-74
2023/07/14 06:14:54;;;;;;;12.90;7.47;;;;;;;;;;5020001;28;20056;-74
2023/07/14 06:17:19;;;;;;;11.83;6.77;;;;;;;;;;5036372;28;20032;-75
2023/07/14 06:19:44;;;;;;;13.50;7.00;;;;;;;;;;5019051;28;20029;-74
2023/07/14 06:22:09;;;;;;;11.47;7.60;;;;;;;;;;5020727;28;20036;-77
2023/07/14 06:24:35;;;;;;;11.90;7.43;;;;;;;;;;5015955;28;20303;-79
2023/07/14 06:27:01;;;;;;;12.48;7.53;;;;;;;;;;5003212;28;20363;-74
2023/07/14 06:29:26;;;;;;;10.35;6.88;;;;;;;;;;5036954;28;20021;-75
2023/07/14 06:31:51;;;;;;;13.27;7.10;;;;;;;;;;5021165;28;20021;-75
2023/07/14 06:34:16;;;;;;;15.50;7.80;;;;;;;;;;5040511;28;20036;-75
2023/07/14 06:36:42;;;;;;;12.83;7.00;;;;;;;;;;5001894;28;20025;-75
2023/07/14 06:39:07;;;;;;;10.97;6.93;;;;;;;;;;5039886;28;20017;-76
2023/07/14 06:41:32;;;;;;;13.93;6.80;;;;;;;;;;5015655;28;20021;-76
2023/07/14 06:43:58;;;;;;;13.53;7.13;;;;;;;;;;5022273;28;20044;-75
2023/07/14 06:46:24;;;;;;;10.07;6.72;;;;;;;;;;5039915;28;20350;-75
2023/07/14 06:48:49;;;;;;;10.10;6.25;;;;;;;;;;5039012;28;20033;-76
2023/07/14 06:51:14;;;;;;;11.63;7.03;;;;;;;;;;5042462;28;20051;-76
2023/07/14 06:53:40;;;;;;;13.27;6.63;;;;;;;;;;5039627;28;20017;-76
2023/07/14 06:56:05;;;;;;;12.43;6.50;;;;;;;;;;5023356;28;20104;-75
2023/07/14 06:58:30;;;;;;;12.43;6.53;;;;;;;;;;5039225;28;20021;-75
2023/07/14 07:00:56;;;;;;;10.40;6.80;;;;;;;;;;5042710;28;20775;-75
2023/07/14 07:03:21;;;;;;;10.90;6.70;;;;;;;;;;5041127;28;20421;-75
2023/07/14 07:05:46;;;;;;;11.27;6.87;;;;;;;;;;5023247;28;20029;-76
2023/07/14 07:08:12;;;;;;;11.40;6.70;;;;;;;;;;5039634;28;20017;-75
2023/07/14 07:10:39;;;;;;;12.35;7.70;;;;;;;;;;5020428;28;20683;-78
2023/07/14 07:13:04;;;;;;;11.40;7.15;;;;;;;;;;5000500;28;20037;-78
2023/07/14 07:15:29;;;;;;;13.07;6.97;;;;;;;;;;5002156;28;20071;-86
2023/07/14 07:17:54;;;;;;;12.80;6.93;;;;;;;;;;5003355;28;20319;-77
2023/07/14 07:20:20;;;;;;;11.40;6.40;;;;;;;;;;5002914;28;20056;-83
2023/07/14 07:22:45;;;;;;;10.03;6.83;;;;;;;;;;5006394;28;20028;-83
2023/07/14 07:25:10;;;;;;;9.88;6.80;;;;;;;;;;4998987;28;20037;-84
2023/07/14 07:27:36;;;;;;;11.32;7.13;;;;;;;;;;5018422;28;21667;-83
2023/07/14 07:30:01;;;;;;;12.77;6.87;;;;;;;;;;5023060;28;20472;-84
2023/07/14 07:32:27;;;;;;;9.00;6.50;;;;;;;;;;5005027;28;20357;-82
2023/07/14 07:34:52;;;;;;;9.25;6.57;;;;;;;;;;5006614;28;20025;-84
2023/07/14 07:37:18;;;;;;;9.50;5.90;;;;;;;;;;5000684;28;20044;-82
2023/07/14 07:39:43;;;;;;;9.23;6.00;;;;;;;;;;5022287;28;20091;-83
2023/07/14 07:42:08;;;;;;;8.37;6.20;;;;;;;;;;5022346;28;20086;-78
2023/07/14 07:44:33;;;;;;;9.67;6.53;;;;;;;;;;5006715;28;20070;-78
2023/07/14 07:46:58;;;;;;;8.67;5.80;;;;;;;;;;4999776;28;20083;-78
2023/07/14 07:49:24;;;;;;;9.37;5.90;;;;;;;;;;5021838;28;20082;-78
2023/07/14 07:51:49;;;;;;;9.50;6.10;;;;;;;;;;5022607;28;20665;-78
2023/07/14 07:54:14;;;;;;;8.25;6.03;;;;;;;;;;5019385;28;20381;-78
2023/07/14 07:56:42;;;;;;;10.95;5.80;;;;;;;;;;5005267;28;20021;-79
2023/07/14 07:59:08;;;;;;;9.18;6.22;;;;;;;;;;5019242;28;20055;-83
2023/07/14 08:01:34;;;;;;;10.32;6.40;;;;;;;;;;5005275;28;20046;-82
2023/07/14 08:04:00;;;;;;;9.73;5.38;;;;;;;;;;5003519;28;20041;-79
2023/07/14 08:06:27;;;;;;;7.47;5.88;;;;;;;;;;5000496;28;20041;-81
2023/07/14 08:08:52;;;;;;;7.88;5.82;;;;;;;;;;5018575;28;20048;-80
2023/07/14 08:11:17;;;;;;;9.00;6.22;;;;;;;;;;5000772;28;20045;-80
2023/07/14 08:13:42;;;;;;;6.80;5.43;;;;;;;;;;5017665;28;20518;-80
2023/07/14 08:16:08;;;;;;;7.50;5.57;;;;;;;;;;5021835;28;20875;-77
2023/07/14 08:18:33;;;;;;;8.40;5.53;;;;;;;;;;4998460;28;22307;-79
2023/07/14 08:20:58;;;;;;;10.27;6.03;;;;;;;;;;5022234;28;20299;-79
2023/07/14 08:23:24;;;;;;;8.30;5.45;;;;;;;;;;5020695;28;20298;-78
2023/07/14 08:25:52;;;;;;;9.27;5.83;;;;;;;;;;5023134;28;20037;-79
2023/07/14 08:28:17;;;;;;;8.18;5.45;;;;;;;;;;5039604;28;20279;-79
2023/07/14 08:30:45;;;;;;;7.25;5.57;;;;;;;;;;5005675;28;20139;-78
2023/07/14 08:33:10;;;;;;;8.43;5.70;;;;;;;;;;5006410;28;20127;-79
2023/07/14 08:35:35;;;;;;;7.50;4.97;;;;;;;;;;5041029;28;20120;-79
2023/07/14 08:38:00;;;;;;;7.00;5.13;;;;;;;;;;5017751;28;20033;-84
2023/07/14 08:40:28;;;;;;;7.50;5.13;;;;;;;;;;4998809;28;20183;-78
2023/07/14 08:43:09;;;;;;;6.78;4.80;;;;;;;;;;5018834;28;20119;-78
2023/07/14 08:45:36;;;;;;;6.55;5.20;;;;;;;;;;5037754;28;20087;-79
2023/07/14 08:48:10;;;;;;;7.72;5.40;;;;;;;;;;5020630;28;20033;-80
2023/07/14 08:50:36;;;;;;;7.78;5.13;;;;;;;;;;5021292;28;20040;-81
2023/07/14 08:53:03;;;;;;;7.78;5.70;;;;;;;;;;5018214;28;20037;-81
2023/07/14 08:55:28;;;;;;;6.93;5.40;;;;;;;;;;5038399;28;20025;-81
2023/07/14 08:58:10;;;;;;;7.30;5.00;;;;;;;;;;5020400;28;20593;-81
2023/07/14 09:00:36;;;;;;;7.07;5.38;;;;;;;;;;5037051;28;20289;-79
2023/07/14 09:03:01;;;;;;;7.50;5.30;;;;;;;;;;5019807;28;20105;-84
2023/07/14 09:05:28;;;;;;;8.32;4.82;;;;;;;;;;5021302;28;20041;-78
2023/07/14 09:07:53;;;;;;;5.90;4.87;;;;;;;;;;5016298;28;20035;-78
2023/07/14 09:10:19;;;;;;;7.90;4.83;;;;;;;;;;5018926;28;20033;-78
2023/07/14 09:13:03;;;;;;;6.28;4.90;;;;;;;;;;4999881;28;20875;-78
2023/07/14 09:15:28;;;;;;;7.55;4.93;;;;;;;;;;5038002;28;20111;-78
2023/07/14 09:18:16;;;;;;;6.83;4.80;;;;;;;;;;5032580;28;20060;-78
2023/07/14 09:20:45;;;;;;;5.45;4.45;;;;;;;;;;5044517;28;20467;-79
2023/07/14 09:23:10;;;;;;;7.85;5.05;;;;;;;;;;5037205;28;20048;-80
2023/07/14 09:25:54;;;;;;;9.18;5.85;;;;;;;;;;5036525;28;20110;-78
2023/07/14 09:28:25;;;;;;;8.60;5.97;;;;;;;;;;5039000;28;20105;-80
2023/07/14 09:30:51;;;;;;;11.73;7.63;;;;;;;;;;5040223;28;20116;-79
2023/07/14 09:33:16;;;;;;;13.60;8.43;;;;;;;;;;5019397;28;20566;-78
2023/07/14 09:35:44;;;;;;;11.98;7.90;;;;;;;;;;5015206;28;20618;-79
2023/07/14 09:38:17;;;;;;;10.82;6.97;;;;;;;;;;5020257;28;20860;-79
2023/07/14 09:40:42;;;;;;;12.70;7.47;;;;;;;;;;4998285;28;20033;-79
2023/07/14 09:43:09;;;;;;;10.73;6.68;;;;;;;;;;4999499;28;20047;-79
2023/07/14 09:45:36;;;;;;;9.15;6.38;;;;;;;;;;5020780;28;20132;-78
2023/07/14 09:48:17;;;;;;;8.68;6.00;;;;;;;;;;4997535;28;20044;-78
2023/07/14 09:51:03;;;;;;;8.70;6.03;;;;;;;;;;5038617;28;20462;-80
2023/07/14 09:53:29;;;;;;;11.32;6.45;;;;;;;;;;5038120;28;20047;-81
2023/07/14 09:55:57;;;;;;;9.73;5.82;;;;;;;;;;5003355;28;20088;-80
2023/07/14 09:58:24;;;;;;;9.02;5.70;;;;;;;;;;5019095;28;20114;-78
2023/07/14 10:00:49;;;;;;;9.02;5.68;;;;;;;;;;5041394;28;20497;-78
2023/07/14 10:03:16;;;;;;;8.10;5.50;;;;;;;;;;5037713;28;20817;-80
2023/07/14 10:05:51;;;;;;;8.00;5.72;;;;;;;;;;5005871;28;20048;-80
2023/07/14 10:08:45;;;;;;;7.97;5.38;;;;;;;;;;5024674;28;20029;-77
2023/07/14 10:11:17;;;;;;;9.05;5.70;;;;;;;;;;5009660;28;20044;-84
2023/07/14 10:13:44;;;;;;;8.43;5.45;;;;;;;;;;5019343;28;20056;-79
2023/07/14 10:16:14;;;;;;;8.70;5.65;;;;;;;;;;5009609;28;20029;-79
2023/07/14 10:18:51;;;;;;;7.53;5.20;;;;;;;;;;5023194;28;20037;-80
2023/07/14 10:21:21;;;;;;;7.05;5.80;;;;;;;;;;5040551;28;20494;-79
2023/07/14 10:24:05;;;;;;;7.05;5.35;;;;;;;;;;5023687;28;20045;-79
2023/07/14 10:26:35;;;;;;;7.97;5.45;;;;;;;;;;5025439;28;20048;-78
2023/07/14 10:29:04;;;;;;;8.52;5.47;;;;;;;;;;5060434;23;20056;-61
2023/07/14 10:31:56;;;;;;;7.00;5.57;;;;;;;;;;5038318;28;20510;-63
2023/07/14 10:34:28;;;;;;;6.95;5.25;;;;;;;;;;5036316;28;20041;-61
2023/07/14 10:36:54;;;;;;;6.68;5.43;;;;;;;;;;5038536;28;20036;-60
2023/07/14 10:39:26;;;;;;;6.85;4.90;;;;;;;;;;5014124;28;20029;-61
2023/07/14 10:41:51;;;;;;;8.20;5.60;;;;;;;;;;5038978;28;20426;-63
2023/07/14 10:44:22;;;;;;;6.73;5.30;;;;;;;;;;5036353;28;20071;-63
2023/07/14 10:46:49;;;;;;;8.05;5.32;;;;;;;;;;5021240;28;20373;-63
2023/07/14 10:49:31;;;;;;;8.48;5.82;;;;;;;;;;5039277;28;20037;-66
2023/07/14 10:52:23;;;;;;;8.50;5.55;;;;;;;;;;5043292;28;20037;-66
2023/07/14 10:54:51;;;;;;;8.25;5.35;;;;;;;;;;5039971;28;20737;-65
2023/07/14 10:57:20;;;;;;;6.97;5.15;;;;;;;;;;5040648;28;20138;-63
2023/07/14 10:59:50;;;;;;;8.68;5.63;;;;;;;;;;5038157;28;20037;-58
2023/07/14 11:02:19;;;;;;;7.03;5.22;;;;;;;;;;5022122;28;20076;-60
2023/07/14 11:05:05;;;;;;;7.67;5.17;;;;;;;;;;5021499;28;20041;-63
2023/07/14 11:07:30;;;;;;;7.80;5.32;;;;;;;;;;5038514;28;20444;-64
2023/07/14 11:09:56;;;;;;;6.57;5.13;;;;;;;;;;5040869;28;20027;-63
2023/07/14 11:12:22;;;;;;;7.00;5.22;;;;;;;;;;5040671;28;21079;-62
2023/07/14 11:14:51;;;;;;;8.85;5.10;;;;;;;;;;5038838;28;20071;-60
2023/07/14 11:17:27;;;;;;;7.13;5.47;;;;;;;;;;5038347;28;20013;-61
2023/07/14 11:20:03;;;;;;;9.07;5.43;;;;;;;;;;5020791;28;20175;-66
2023/07/14 11:22:29;;;;;;;8.73;5.70;;;;;;;;;;5020035;28;20124;-60
2023/07/14 11:24:57;;;;;;;9.60;5.20;;;;;;;;;;5038708;28;20548;-63
2023/07/14 11:27:33;;;;;;;6.82;5.25;;;;;;;;;;5039946;28;20037;-64
2023/07/14 11:30:04;;;;;;;7.38;5.60;;;;;;;;;;5038400;28;20463;-60
2023/07/14 11:32:39;;;;;;;8.35;5.63;;;;;;;;;;5037533;28;20032;-59
2023/07/14 11:35:17;;;;;;;8.50;5.50;;;;;;;;;;5041165;28;20094;-59
2023/07/14 11:37:44;;;;;;;7.00;5.30;;;;;;;;;;5021974;28;20037;-63
2023/07/14 11:40:19;;;;;;;8.85;5.88;;;;;;;;;;5040476;28;20061;-61
2023/07/14 11:42:45;;;;;;;7.63;5.20;;;;;;;;;;5039065;28;20048;-60
2023/07/14 11:45:17;;;;;;;6.97;5.32;;;;;;;;;;5022271;28;20048;-62
2023/07/14 11:47:42;;;;;;;7.93;5.28;;;;;;;;;;5019375;28;20048;-63
2023/07/14 11:50:16;;;;;;;7.18;5.53;;;;;;;;;;5037251;28;20135;-62
2023/07/14 11:52:56;;;;;;;7.63;5.63;;;;;;;;;;5038021;28;20033;-65
2023/07/14 11:55:24;;;;;;;7.57;5.78;;;;;;;;;;5018028;28;20149;-63
2023/07/14 11:57:51;;;;;;;7.78;5.32;;;;;;;;;;5038980;28;20516;-61
2023/07/14 12:00:19;;;;;;;8.32;5.30;;;;;;;;;;5041588;28;20125;-62
2023/07/14 12:02:48;;;;;;;7.75;5.60;;;;;;;;;;5039360;28;20094;-63
2023/07/14 12:05:13;;;;;;;7.00;5.13;;;;;;;;;;5037763;28;20037;-63
2023/07/14 12:07:59;;;;;;;7.60;5.37;;;;;;;;;;5037824;28;20131;-61
2023/07/14 12:10:42;;;;;;;7.57;5.60;;;;;;;;;;5037742;28;20136;-62
2023/07/14 12:13:16;;;;;;;8.20;5.82;;;;;;;;;;5037516;28;20095;-59
2023/07/14 12:15:49;;;;;;;7.13;5.18;;;;;;;;;;5019754;28;20034;-59
2023/07/14 12:18:37;;;;;;;8.85;5.85;;;;;;;;;;5035908;28;20116;-60
2023/07/14 12:21:14;;;;;;;7.00;5.30;;;;;;;;;;5027818;28;20041;-63
2023/07/14 12:23:43;;;;;;;7.70;5.57;;;;;;;;;;5037792;28;20100;-62
2023/07/14 12:26:12;;;;;;;6.82;5.53;;;;;;;;;;5036933;28;20025;-61
2023/07/14 12:28:38;;;;;;;6.95;5.50;;;;;;;;;;5037821;28;20037;-62
2023/07/14 12:31:05;;;;;;;7.00;5.38;;;;;;;;;;5036514;28;20040;-64
2023/07/14 12:33:30;;;;;;;8.75;5.30;;;;;;;;;;5037246;28;20036;-60
2023/07/14 12:35:56;;;;;;;7.40;5.33;;;;;;;;;;5037509;28;20714;-62
2023/07/14 12:38:22;;;;;;;7.60;5.47;;;;;;;;;;5037978;28;20287;-59
2023/07/14 12:40:50;;;;;;;8.32;5.70;;;;;;;;;;5017777;28;20033;-64
2023/07/14 12:43:21;;;;;;;7.90;5.90;;;;;;;;;;5020154;28;20205;-60
2023/07/14 12:45:47;;;;;;;6.78;5.40;;;;;;;;;;5035294;28;20742;-63
2023/07/14 12:48:12;;;;;;;7.32;5.22;;;;;;;;;;5016863;28;20178;-62
2023/07/14 12:50:40;;;;;;;7.28;5.25;;;;;;;;;;5018038;28;20039;-61
2023/07/14 12:53:15;;;;;;;7.97;5.40;;;;;;;;;;5036549;28;20747;-65
2023/07/14 12:55:40;;;;;;;8.00;5.28;;;;;;;;;;5037959;28;20088;-60
2023/07/14 12:58:07;;;;;;;7.20;5.00;;;;;;;;;;5037684;28;20036;-62
2023/07/14 13:00:32;;;;;;;7.43;5.68;;;;;;;;;;5035338;28;20302;-61
2023/07/14 13:02:58;;;;;;;10.18;5.78;;;;;;;;;;5036264;28;20033;-63
2023/07/14 13:05:26;;;;;;;8.10;5.47;;;;;;;;;;5037690;28;20057;-62
2023/07/14 13:07:52;;;;;;;7.13;5.22;;;;;;;;;;5037306;28;20033;-60
2023/07/14 13:10:18;;;;;;;7.57;5.32;;;;;;;;;;5012426;28;20041;-63
2023/07/14 13:12:43;;;;;;;6.60;4.90;;;;;;;;;;5036722;28;20036;-60
2023/07/14 13:15:12;;;;;;;6.88;5.05;;;;;;;;;;5019251;28;20542;-61
2023/07/14 13:17:37;;;;;;;8.85;5.78;;;;;;;;;;5019096;28;20029;-64
2023/07/14 13:20:18;;;;;;;8.07;5.40;;;;;;;;;;5012004;28;20128;-60
2023/07/14 13:22:43;;;;;;;7.97;5.40;;;;;;;;;;5034967;28;21069;-60
2023/07/14 13:25:14;;;;;;;6.85;5.10;;;;;;;;;;5036610;28;20032;-62
2023/07/14 13:27:40;;;;;;;8.80;5.90;;;;;;;;;;5031562;28;20095;-63
2023/07/14 13:30:32;;;;;;;8.10;5.45;;;;;;;;;;5030448;28;20708;-59
2023/07/14 13:32:58;;;;;;;7.57;5.60;;;;;;;;;;5032068;28;20041;-62
2023/07/14 13:35:27;;;;;;;8.20;5.68;;;;;;;;;;5036562;28;20110;-59
2023/07/14 13:37:56;;;;;;;7.45;5.32;;;;;;;;;;5036643;28;20017;-59
2023/07/14 13:40:23;;;;;;;7.43;5.68;;;;;;;;;;5034956;28;20036;-61
2023/07/14 13:42:50;;;;;;;7.00;5.07;;;;;;;;;;5018075;28;20509;-60
2023/07/14 13:45:23;;;;;;;7.60;5.68;;;;;;;;;;5035545;28;20046;-60
2023/07/14 13:47:53;;;;;;;7.55;5.30;;;;;;;;;;5036286;28;20171;-61
2023/07/14 13:50:18;;;;;;;7.85;5.22;;;;;;;;;;5034030;28;20045;-62
2023/07/14 13:52:43;;;;;;;9.43;5.20;;;;;;;;;;5036949;28;20041;-61
2023/07/14 13:55:12;;;;;;;8.03;5.57;;;;;;;;;;5037153;28;20284;-61
2023/07/14 13:57:38;;;;;;;6.60;5.05;;;;;;;;;;5036573;28;20033;-61
2023/07/14 14:00:04;;;;;;;8.10;5.35;;;;;;;;;;5020715;28;20044;-62
2023/07/14 14:02:36;;;;;;;7.45;5.28;;;;;;;;;;5035318;28;20517;-59
2023/07/14 14:05:03;;;;;;;7.63;5.60;;;;;;;;;;5038940;28;20045;-61
2023/07/14 14:07:30;;;;;;;7.47;5.72;;;;;;;;;;5038566;28;20036;-60
2023/07/14 14:09:55;;;;;;;7.18;5.40;;;;;;;;;;5035637;28;20612;-62
2023/07/14 14:12:21;;;;;;;7.77;5.33;;;;;;;;;;5039249;28;20422;-63
2023/07/14 14:14:47;;;;;;;6.90;5.22;;;;;;;;;;5037326;28;20296;-61
2023/07/14 14:17:20;;;;;;;8.00;5.35;;;;;;;;;;5035757;28;20048;-58
2023/07/14 14:19:46;;;;;;;8.13;5.40;;;;;;;;;;5035338;28;20459;-60
2023/07/14 14:22:11;;;;;;;7.13;5.13;;;;;;;;;;5034547;28;20517;-62
2023/07/14 14:24:37;;;;;;;8.23;5.35;;;;;;;;;;5033264;28;20057;-60
2023/07/14 14:27:03;;;;;;;8.18;5.68;;;;;;;;;;5027065;28;20037;-60
2023/07/14 14:29:28;;;;;;;7.25;5.43;;;;;;;;;;5041050;28;20102;-59
2023/07/14 14:31:53;;;;;;;8.73;5.63;;;;;;;;;;5036416;28;20076;-60
2023/07/14 14:34:18;;;;;;;7.77;5.37;;;;;;;;;;5035652;28;20353;-60
2023/07/14 14:36:45;;;;;;;7.47;5.37;;;;;;;;;;5036940;28;20287;-60
2023/07/14 14:39:14;;;;;;;7.35;5.13;;;;;;;;;;5038948;28;20346;-60